Time;durP1;ratioP1;P1;durP2;ratioP2;P2;SDS_P1;SDS_P2;PMS_P1;PMS_P2;Temp;Humidity;BMP_temperature;BMP_pressure;BME280_temperature;BME280_humidity;BME280_pressure;Samples;Min_cycle;Max_cycle;Signal;HPM_P1;HPM_P2
2021/08/29 00:00:06;;;;;;;14.20;9.60;;;14.70;99.90;;;;;;5094716;28;20043;-69
2021/08/29 00:02:31;;;;;;;13.07;8.60;;;14.70;99.90;;;;;;5095251;28;20020;-69
2021/08/29 00:04:57;;;;;;;13.57;8.38;;;14.70;99.90;;;;;;5094674;28;20036;-69
2021/08/29 00:07:22;;;;;;;13.02;8.65;;;14.80;99.90;;;;;;5093721;28;20031;-69
2021/08/29 00:09:48;;;;;;;14.55;8.93;;;14.80;99.90;;;;;;5094598;28;20038;-69
2021/08/29 00:12:13;;;;;;;13.63;8.98;;;14.70;99.90;;;;;;5095111;28;20040;-69
2021/08/29 00:14:39;;;;;;;15.52;8.00;;;14.70;99.90;;;;;;5093102;28;20062;-69
2021/08/29 00:17:04;;;;;;;14.93;9.02;;;14.70;99.90;;;;;;5094763;28;20020;-69
2021/08/29 00:19:30;;;;;;;15.05;8.75;;;14.70;99.90;;;;;;5094964;28;20373;-69
2021/08/29 00:21:55;;;;;;;13.88;8.93;;;14.70;99.90;;;;;;5094944;28;20020;-69
2021/08/29 00:24:21;;;;;;;13.00;9.00;;;14.60;99.90;;;;;;5094860;28;20024;-69
2021/08/29 00:26:46;;;;;;;15.10;8.85;;;14.70;99.90;;;;;;5093642;28;20028;-69
2021/08/29 00:29:12;;;;;;;14.40;8.02;;;14.70;99.90;;;;;;5094767;28;20024;-69
2021/08/29 00:31:38;;;;;;;14.02;8.40;;;14.70;99.90;;;;;;5094732;28;20028;-69
2021/08/29 00:34:03;;;;;;;14.82;7.82;;;14.70;99.90;;;;;;5094630;28;20024;-69
2021/08/29 00:36:29;;;;;;;12.32;7.90;;;14.70;99.90;;;;;;5094651;28;20020;-69
2021/08/29 00:38:54;;;;;;;12.45;7.80;;;14.70;99.90;;;;;;5094642;28;20020;-69
2021/08/29 00:41:20;;;;;;;12.30;8.38;;;14.70;99.90;;;;;;5094586;28;20032;-69
2021/08/29 00:43:45;;;;;;;11.80;7.85;;;14.70;99.90;;;;;;5094599;28;20020;-69
2021/08/29 00:46:11;;;;;;;13.25;8.02;;;14.70;99.90;;;;;;5094527;28;20466;-69
2021/08/29 00:48:37;;;;;;;12.30;7.53;;;14.70;99.90;;;;;;5093050;28;20028;-69
2021/08/29 00:51:03;;;;;;;10.90;7.55;;;14.70;99.90;;;;;;5094203;28;20027;-69
2021/08/29 00:53:32;;;;;;;15.10;7.85;;;14.70;99.90;;;;;;5094365;28;20065;-69
2021/08/29 00:55:58;;;;;;;13.75;7.35;;;14.70;99.90;;;;;;5094388;28;20044;-68
2021/08/29 00:58:25;;;;;;;12.65;7.65;;;14.60;99.90;;;;;;5094408;28;20024;-69
2021/08/29 01:00:52;;;;;;;15.50;7.22;;;14.70;99.90;;;;;;5094018;28;20052;-69
2021/08/29 01:03:23;;;;;;;11.63;7.50;;;14.70;99.90;;;;;;5094316;28;20022;-69
2021/08/29 01:06:28;;;;;;;17.20;7.72;;;14.70;99.90;;;;;;5094000;28;20028;-69
2021/08/29 01:09:02;;;;;;;12.35;7.43;;;14.60;99.90;;;;;;5093415;28;20024;-69
2021/08/29 01:11:28;;;;;;;17.63;8.40;;;14.70;99.90;;;;;;5094161;28;20020;-69
2021/08/29 01:14:00;;;;;;;17.25;8.30;;;14.70;99.90;;;;;;5093519;28;20176;-69
2021/08/29 01:16:30;;;;;;;16.20;7.30;;;14.60;99.90;;;;;;5094169;28;20016;-69
2021/08/29 01:18:57;;;;;;;15.50;7.82;;;14.60;99.90;;;;;;5092307;28;20024;-69
2021/08/29 01:21:27;;;;;;;14.25;7.63;;;14.60;99.90;;;;;;5093777;28;20480;-69
2021/08/29 01:24:01;;;;;;;14.68;8.25;;;14.70;99.90;;;;;;5093800;28;20035;-69
2021/08/29 01:26:40;;;;;;;18.30;8.45;;;14.60;99.90;;;;;;5093769;28;20107;-69
2021/08/29 01:29:06;;;;;;;12.10;9.02;;;14.60;99.90;;;;;;5093796;28;20034;-69
2021/08/29 01:31:34;;;;;;;17.05;9.60;;;14.60;99.90;;;;;;5093940;28;20025;-69
2021/08/29 01:34:07;;;;;;;17.42;9.25;;;14.60;99.90;;;;;;5093896;28;20050;-69
2021/08/29 01:36:33;;;;;;;16.40;8.70;;;14.60;99.90;;;;;;5093982;28;20020;-69
2021/08/29 01:39:01;;;;;;;17.33;9.05;;;14.60;99.90;;;;;;5093920;28;20043;-69
2021/08/29 01:41:28;;;;;;;19.05;9.23;;;14.60;99.90;;;;;;5092773;28;20056;-69
2021/08/29 01:43:55;;;;;;;16.38;8.68;;;14.60;99.90;;;;;;5093889;28;20024;-69
2021/08/29 01:46:21;;;;;;;16.50;9.52;;;14.60;99.90;;;;;;5093595;28;20028;-69
2021/08/29 01:48:46;;;;;;;15.40;8.63;;;14.60;99.90;;;;;;5093848;28;20020;-69
2021/08/29 01:51:13;;;;;;;15.88;9.27;;;14.60;99.90;;;;;;5093779;28;20036;-69
2021/08/29 01:53:39;;;;;;;22.35;10.23;;;14.60;99.90;;;;;;5093740;28;20020;-69
2021/08/29 01:56:06;;;;;;;18.05;9.30;;;14.60;99.90;;;;;;5091990;28;20429;-69
2021/08/29 01:58:32;;;;;;;16.52;10.27;;;14.60;99.90;;;;;;5094032;28;20016;-69
2021/08/29 02:00:59;;;;;;;15.90;9.88;;;14.60;99.90;;;;;;5093703;28;20020;-69
2021/08/29 02:03:26;;;;;;;19.10;10.30;;;14.60;99.90;;;;;;5093442;28;20093;-69
2021/08/29 02:05:57;;;;;;;17.40;9.68;;;14.60;99.90;;;;;;5093677;28;20020;-69
2021/08/29 02:08:24;;;;;;;14.68;9.02;;;14.50;99.90;;;;;;5093654;28;20107;-69
2021/08/29 02:10:55;;;;;;;19.58;9.82;;;14.50;99.90;;;;;;5093660;28;20032;-69
2021/08/29 02:13:24;;;;;;;16.45;9.35;;;14.50;99.90;;;;;;5092865;28;20047;-69
2021/08/29 02:16:00;;;;;;;21.02;9.43;;;14.50;99.90;;;;;;5093500;28;20028;-69
2021/08/29 02:18:27;;;;;;;17.92;9.75;;;14.50;99.90;;;;;;5093578;28;20099;-69
2021/08/29 02:20:53;;;;;;;16.85;9.05;;;14.50;99.90;;;;;;5093260;28;20085;-69
2021/08/29 02:23:23;;;;;;;17.23;9.98;;;14.50;99.90;;;;;;5096949;28;20023;-69
2021/08/29 02:25:49;;;;;;;17.70;9.05;;;14.50;99.90;;;;;;5097203;28;20103;-69
2021/08/29 02:28:15;;;;;;;18.60;9.20;;;14.50;99.90;;;;;;5095698;28;20024;-69
2021/08/29 02:30:42;;;;;;;24.33;10.13;;;14.50;99.90;;;;;;5095909;28;20024;-69
2021/08/29 02:33:09;;;;;;;16.77;9.05;;;14.50;99.90;;;;;;5097024;28;20062;-69
2021/08/29 02:35:37;;;;;;;15.65;9.63;;;14.50;99.90;;;;;;5096901;28;20024;-69
2021/08/29 02:38:04;;;;;;;23.77;9.95;;;14.50;99.90;;;;;;5096923;28;20103;-69
2021/08/29 02:40:35;;;;;;;18.85;9.68;;;14.50;99.90;;;;;;5096881;28;20369;-69
2021/08/29 02:43:01;;;;;;;19.77;9.95;;;14.50;99.90;;;;;;5096862;28;20473;-68
2021/08/29 02:45:27;;;;;;;25.42;10.60;;;14.50;99.90;;;;;;5096830;28;20112;-68
2021/08/29 02:47:53;;;;;;;17.52;9.60;;;14.50;99.90;;;;;;5096789;28;20048;-69
2021/08/29 02:50:20;;;;;;;20.90;11.02;;;14.50;99.90;;;;;;5096726;28;20063;-68
2021/08/29 02:52:45;;;;;;;19.70;11.32;;;14.50;99.90;;;;;;5096665;28;20020;-69
2021/08/29 02:55:14;;;;;;;21.45;10.20;;;14.40;99.90;;;;;;5096009;28;20116;-68
2021/08/29 02:57:44;;;;;;;19.42;10.48;;;14.40;99.90;;;;;;5096522;28;20020;-68
2021/08/29 03:00:12;;;;;;;22.95;11.25;;;14.50;99.90;;;;;;5096249;28;20020;-68
2021/08/29 03:02:40;;;;;;;23.98;11.70;;;14.50;99.90;;;;;;5096467;28;20020;-69
2021/08/29 03:05:06;;;;;;;23.85;12.02;;;14.50;99.90;;;;;;5078524;28;20028;-69
2021/08/29 03:07:31;;;;;;;20.17;11.80;;;14.50;99.90;;;;;;5094650;28;20085;-68
2021/08/29 03:09:57;;;;;;;30.83;11.82;;;14.50;99.90;;;;;;5096302;28;20028;-69
2021/08/29 03:12:24;;;;;;;27.88;13.60;;;14.40;99.90;;;;;;5096269;28;20032;-69
2021/08/29 03:14:50;;;;;;;22.33;13.30;;;14.40;99.90;;;;;;5095470;28;20051;-69
2021/08/29 03:17:16;;;;;;;29.65;12.82;;;14.50;99.90;;;;;;5094776;28;20401;-69
2021/08/29 03:19:44;;;;;;;24.65;13.70;;;14.50;99.90;;;;;;5094724;28;20024;-69
2021/08/29 03:22:11;;;;;;;22.70;13.23;;;14.50;99.90;;;;;;5096146;28;20043;-69
2021/08/29 03:24:36;;;;;;;19.38;12.75;;;14.50;99.90;;;;;;5095779;28;20028;-68
2021/08/29 03:27:02;;;;;;;26.92;14.02;;;14.50;99.90;;;;;;5095984;28;20036;-68
2021/08/29 03:29:28;;;;;;;29.27;14.02;;;14.50;99.90;;;;;;5095937;28;20039;-69
2021/08/29 03:31:53;;;;;;;26.77;14.55;;;14.50;99.90;;;;;;5095880;28;20461;-69
2021/08/29 03:34:21;;;;;;;32.00;14.68;;;14.50;99.90;;;;;;5095501;28;20031;-68
2021/08/29 03:36:47;;;;;;;29.73;14.82;;;14.50;99.90;;;;;;5095244;28;20021;-68
2021/08/29 03:39:14;;;;;;;28.63;14.65;;;14.50;99.90;;;;;;5077928;28;20511;-69
2021/08/29 03:41:42;;;;;;;31.02;15.68;;;14.50;99.90;;;;;;5095128;28;20016;-68
2021/08/29 03:44:10;;;;;;;32.38;15.23;;;14.50;99.90;;;;;;5094247;28;20024;-69
2021/08/29 03:46:36;;;;;;;32.33;14.65;;;14.50;99.90;;;;;;5095360;28;20020;-68
2021/08/29 03:49:03;;;;;;;25.20;15.48;;;14.50;99.90;;;;;;5095601;28;20029;-68
2021/08/29 03:51:29;;;;;;;34.05;15.02;;;14.50;99.90;;;;;;5111273;28;20051;-68
2021/08/29 03:53:55;;;;;;;38.65;16.38;;;14.60;99.90;;;;;;5093998;28;20075;-68
2021/08/29 03:56:21;;;;;;;44.58;16.83;;;14.50;99.90;;;;;;5095158;28;20031;-68
2021/08/29 03:58:47;;;;;;;33.55;16.35;;;14.50;99.90;;;;;;5095154;28;20031;-68
2021/08/29 04:01:13;;;;;;;28.90;15.60;;;14.60;99.90;;;;;;5095319;28;20032;-68
2021/08/29 04:03:38;;;;;;;33.90;16.90;;;14.50;99.90;;;;;;5095294;28;20027;-68
2021/08/29 04:06:05;;;;;;;31.50;16.23;;;14.50;99.90;;;;;;5095254;28;20107;-68
2021/08/29 04:08:36;;;;;;;35.80;16.70;;;14.50;99.90;;;;;;5095210;28;20020;-68
2021/08/29 04:11:02;;;;;;;40.92;17.67;;;14.50;99.90;;;;;;5095157;28;20012;-69
2021/08/29 04:13:30;;;;;;;42.78;16.95;;;14.50;99.90;;;;;;5093831;28;20063;-68
2021/08/29 04:15:56;;;;;;;41.28;17.67;;;14.50;99.90;;;;;;5093191;28;20028;-68
2021/08/29 04:18:22;;;;;;;32.25;17.38;;;14.50;99.90;;;;;;5095028;28;20483;-68
2021/08/29 04:20:48;;;;;;;45.58;19.27;;;14.50;99.90;;;;;;5094999;28;20039;-68
2021/08/29 04:23:14;;;;;;;36.05;18.92;;;14.50;99.90;;;;;;5093541;28;20028;-68
2021/08/29 04:25:40;;;;;;;40.60;19.30;;;14.50;99.90;;;;;;5094333;28;20032;-68
2021/08/29 04:28:06;;;;;;;40.47;17.88;;;14.50;99.90;;;;;;5093438;28;20151;-69
2021/08/29 04:30:33;;;;;;;38.40;18.90;;;14.50;99.90;;;;;;5094823;28;20024;-68
2021/08/29 04:32:59;;;;;;;41.80;18.00;;;14.50;99.90;;;;;;5093283;28;20028;-68
2021/08/29 04:35:24;;;;;;;36.92;18.98;;;14.50;99.90;;;;;;5093735;28;20502;-68
2021/08/29 04:37:51;;;;;;;39.97;18.38;;;14.50;99.90;;;;;;5094727;28;20460;-68
2021/08/29 04:40:18;;;;;;;42.97;17.80;;;14.50;99.90;;;;;;5094684;28;20368;-68
2021/08/29 04:42:43;;;;;;;36.13;17.30;;;14.50;99.90;;;;;;5092800;28;20538;-68
2021/08/29 04:45:10;;;;;;;32.67;17.52;;;14.50;99.90;;;;;;5092355;28;20032;-68
2021/08/29 04:47:36;;;;;;;31.88;16.73;;;14.50;99.90;;;;;;5094574;28;20048;-69
2021/08/29 04:50:02;;;;;;;35.88;17.05;;;14.60;99.90;;;;;;5094523;28;20109;-68
2021/08/29 04:52:30;;;;;;;40.80;16.67;;;14.60;99.90;;;;;;5094219;28;20024;-68
2021/08/29 04:54:56;;;;;;;35.13;16.88;;;14.60;99.90;;;;;;5094411;28;20438;-68
2021/08/29 04:57:21;;;;;;;33.70;16.92;;;14.60;99.90;;;;;;5094407;28;20052;-68
2021/08/29 04:59:47;;;;;;;31.20;16.45;;;14.60;99.90;;;;;;5094384;28;20435;-68
2021/08/29 05:02:12;;;;;;;26.05;14.95;;;14.60;99.90;;;;;;5094357;28;20040;-69
2021/08/29 05:04:38;;;;;;;33.33;16.35;;;14.60;99.90;;;;;;5094300;28;20054;-68
2021/08/29 05:07:04;;;;;;;28.95;16.38;;;14.60;99.90;;;;;;5094301;28;20052;-68
2021/08/29 05:09:29;;;;;;;36.20;16.17;;;14.70;99.90;;;;;;5093705;28;20081;-68
2021/08/29 05:11:55;;;;;;;32.15;15.50;;;14.70;99.90;;;;;;5094237;28;20107;-68
2021/08/29 05:14:20;;;;;;;34.35;15.88;;;14.70;99.90;;;;;;5093424;28;20079;-68
2021/08/29 05:16:46;;;;;;;25.25;15.98;;;14.70;99.90;;;;;;5093629;28;20028;-68
2021/08/29 05:19:11;;;;;;;30.92;16.25;;;14.70;99.90;;;;;;5093865;28;20103;-68
2021/08/29 05:21:37;;;;;;;32.42;15.13;;;14.70;99.90;;;;;;5094152;28;20408;-68
2021/08/29 05:24:03;;;;;;;29.65;15.45;;;14.70;99.90;;;;;;5094100;28;20028;-69
2021/08/29 05:26:28;;;;;;;33.80;15.82;;;14.70;99.90;;;;;;5093866;28;20032;-68
2021/08/29 05:28:54;;;;;;;36.28;15.55;;;14.70;99.90;;;;;;5093805;28;20465;-69
2021/08/29 05:31:19;;;;;;;35.17;15.35;;;14.70;99.90;;;;;;5094026;28;20449;-69
2021/08/29 05:33:45;;;;;;;30.23;16.40;;;14.70;99.90;;;;;;5094196;28;20035;-68
2021/08/29 05:36:10;;;;;;;30.38;16.00;;;14.70;99.90;;;;;;5092551;28;20020;-69
2021/08/29 05:38:36;;;;;;;33.85;16.30;;;14.70;99.90;;;;;;5093992;28;20538;-69
2021/08/29 05:41:01;;;;;;;31.10;15.48;;;14.70;99.90;;;;;;5092133;28;20040;-68
2021/08/29 05:43:27;;;;;;;35.50;16.40;;;14.70;99.90;;;;;;5093955;28;20024;-68
2021/08/29 05:45:52;;;;;;;27.85;15.50;;;14.70;99.90;;;;;;5093894;28;20028;-68
2021/08/29 05:48:18;;;;;;;30.13;15.82;;;14.70;99.90;;;;;;5093868;28;20036;-68
2021/08/29 05:50:43;;;;;;;26.33;15.77;;;14.70;99.90;;;;;;5093877;28;20146;-68
2021/08/29 05:53:09;;;;;;;31.90;15.88;;;14.70;99.90;;;;;;5092655;28;20020;-68
2021/08/29 05:55:34;;;;;;;30.55;15.07;;;14.70;99.90;;;;;;5093755;28;20156;-68
2021/08/29 05:58:00;;;;;;;30.35;16.08;;;14.60;99.90;;;;;;5097277;28;20084;-68
2021/08/29 06:00:26;;;;;;;28.55;14.95;;;14.60;99.90;;;;;;5097702;28;20370;-68
2021/08/29 06:02:51;;;;;;;26.73;14.13;;;14.60;99.90;;;;;;5097657;28;20020;-69
2021/08/29 06:05:17;;;;;;;29.00;14.23;;;14.60;99.90;;;;;;5097632;28;20028;-68
2021/08/29 06:07:42;;;;;;;27.02;14.00;;;14.60;99.90;;;;;;5097554;28;20020;-68
2021/08/29 06:10:09;;;;;;;27.70;13.52;;;14.70;99.90;;;;;;5097558;28;20042;-69
2021/08/29 06:12:34;;;;;;;27.60;12.95;;;14.70;99.90;;;;;;5096057;28;20031;-68
2021/08/29 06:15:00;;;;;;;24.15;12.95;;;14.60;99.90;;;;;;5096023;28;20040;-68
2021/08/29 06:17:25;;;;;;;26.27;12.80;;;14.70;99.90;;;;;;5078720;28;20012;-68
2021/08/29 06:19:51;;;;;;;24.73;11.98;;;14.70;99.90;;;;;;5095917;28;20024;-68
2021/08/29 06:22:17;;;;;;;24.50;11.30;;;14.60;99.90;;;;;;5097034;28;20370;-68
2021/08/29 06:24:42;;;;;;;21.67;12.40;;;14.60;99.90;;;;;;5095796;28;20024;-68
2021/08/29 06:27:08;;;;;;;24.23;11.68;;;14.60;99.90;;;;;;5097258;28;20031;-68
2021/08/29 06:29:33;;;;;;;18.42;10.60;;;14.60;99.90;;;;;;5095419;28;20024;-68
2021/08/29 06:31:59;;;;;;;21.00;11.88;;;14.70;99.90;;;;;;5095938;28;20107;-68
2021/08/29 06:34:24;;;;;;;21.00;11.57;;;14.70;99.90;;;;;;5096985;28;20028;-68
2021/08/29 06:36:50;;;;;;;27.80;11.90;;;14.60;99.90;;;;;;5095189;28;20077;-68
2021/08/29 06:39:15;;;;;;;21.33;11.55;;;14.70;99.90;;;;;;5096711;28;20020;-68
2021/08/29 06:41:41;;;;;;;20.23;11.40;;;14.60;99.90;;;;;;5078161;28;20473;-69
2021/08/29 06:44:06;;;;;;;20.63;11.30;;;14.70;99.90;;;;;;5096360;28;20027;-69
2021/08/29 06:46:32;;;;;;;18.52;10.60;;;14.60;99.90;;;;;;5096266;28;20024;-68
2021/08/29 06:48:58;;;;;;;22.75;11.43;;;14.60;99.90;;;;;;5095512;28;20136;-68
2021/08/29 06:51:24;;;;;;;22.58;11.32;;;14.60;99.90;;;;;;5096716;28;20107;-68
2021/08/29 06:53:50;;;;;;;24.63;12.00;;;14.60;99.90;;;;;;5096626;28;20446;-68
2021/08/29 06:56:15;;;;;;;22.75;11.88;;;14.60;99.90;;;;;;5096666;28;20027;-69
2021/08/29 06:58:41;;;;;;;21.20;12.48;;;14.50;99.90;;;;;;5096627;28;20016;-68
2021/08/29 07:01:06;;;;;;;22.10;11.13;;;14.50;99.90;;;;;;5096567;28;20511;-68
2021/08/29 07:03:32;;;;;;;21.48;11.27;;;14.50;99.90;;;;;;5095496;28;20024;-68
2021/08/29 07:05:57;;;;;;;26.25;11.65;;;14.50;99.90;;;;;;5094672;28;20024;-68
2021/08/29 07:08:30;;;;;;;17.75;11.30;;;14.50;99.90;;;;;;5094274;28;20078;-69
2021/08/29 07:10:55;;;;;;;24.20;10.90;;;14.50;99.90;;;;;;5094887;28;20036;-68
2021/08/29 07:13:21;;;;;;;14.52;10.10;;;14.60;99.90;;;;;;5096056;28;20489;-69
2021/08/29 07:15:46;;;;;;;18.02;9.52;;;14.60;99.90;;;;;;5095666;28;20081;-68
2021/08/29 07:18:12;;;;;;;18.50;10.52;;;14.60;99.90;;;;;;5096218;28;20024;-69
2021/08/29 07:20:37;;;;;;;24.45;10.65;;;14.60;99.90;;;;;;5095938;28;20028;-68
2021/08/29 07:23:03;;;;;;;18.08;9.68;;;14.60;99.90;;;;;;5096132;28;20020;-68
2021/08/29 07:25:29;;;;;;;12.75;8.32;;;14.70;99.90;;;;;;5095521;28;20039;-68
2021/08/29 07:27:54;;;;;;;18.30;8.80;;;14.70;99.90;;;;;;5095495;28;20028;-68
2021/08/29 07:30:20;;;;;;;13.95;7.75;;;14.70;99.90;;;;;;5095977;28;20028;-68
2021/08/29 07:32:45;;;;;;;14.75;7.05;;;14.80;99.90;;;;;;5095952;28;20035;-69
2021/08/29 07:35:11;;;;;;;10.82;6.72;;;14.80;99.90;;;;;;5095796;28;20024;-68
2021/08/29 07:37:36;;;;;;;10.35;6.93;;;14.80;99.90;;;;;;5095820;28;20023;-68
2021/08/29 07:40:02;;;;;;;12.13;7.85;;;14.80;99.90;;;;;;5095508;28;20056;-68
2021/08/29 07:42:28;;;;;;;12.90;7.85;;;14.90;99.90;;;;;;5095750;28;20035;-68
2021/08/29 07:44:54;;;;;;;12.13;8.00;;;14.90;99.90;;;;;;5094243;28;20038;-68
2021/08/29 07:47:19;;;;;;;12.57;7.88;;;14.90;99.90;;;;;;5095635;28;20030;-69
2021/08/29 07:49:45;;;;;;;12.85;8.13;;;14.80;99.90;;;;;;5095301;28;20034;-68
2021/08/29 07:52:11;;;;;;;13.43;8.70;;;14.80;99.90;;;;;;5095510;28;20461;-69
2021/08/29 07:54:36;;;;;;;14.57;8.65;;;14.80;99.90;;;;;;5094890;28;20024;-69
2021/08/29 07:57:02;;;;;;;15.40;8.13;;;14.80;99.90;;;;;;5093974;28;20077;-69
2021/08/29 07:59:28;;;;;;;12.85;7.93;;;14.80;99.90;;;;;;5095427;28;20023;-69
2021/08/29 08:01:53;;;;;;;9.80;7.03;;;14.80;99.90;;;;;;5095369;28;20485;-68
2021/08/29 08:04:19;;;;;;;11.13;6.57;;;14.80;99.90;;;;;;5095354;28;20428;-68
2021/08/29 08:06:44;;;;;;;9.15;6.25;;;14.80;99.90;;;;;;5095018;28;20031;-68
2021/08/29 08:09:10;;;;;;;9.63;6.22;;;14.90;99.90;;;;;;5095260;28;20450;-68
2021/08/29 08:11:35;;;;;;;11.27;6.28;;;14.90;99.90;;;;;;5093775;28;20394;-69
2021/08/29 08:14:01;;;;;;;9.55;6.38;;;14.90;99.90;;;;;;5093522;28;20621;-69
2021/08/29 08:16:26;;;;;;;11.18;6.35;;;14.90;99.90;;;;;;5095147;28;20484;-68
2021/08/29 08:18:52;;;;;;;10.77;6.20;;;14.90;99.90;;;;;;5092673;28;20024;-68
2021/08/29 08:21:19;;;;;;;10.95;5.88;;;14.90;99.90;;;;;;5095046;28;20085;-69
2021/08/29 08:23:45;;;;;;;10.98;5.95;;;14.90;99.90;;;;;;5093184;28;20054;-69
2021/08/29 08:26:10;;;;;;;8.50;5.28;;;14.90;99.90;;;;;;5094943;28;20051;-69
2021/08/29 08:28:36;;;;;;;6.68;5.03;;;15.00;99.90;;;;;;5093905;28;20484;-69
2021/08/29 08:31:01;;;;;;;5.32;3.90;;;15.00;99.90;;;;;;5094837;28;20369;-68
2021/08/29 08:33:27;;;;;;;5.82;4.13;;;15.10;99.90;;;;;;5076093;28;20058;-69
2021/08/29 08:35:52;;;;;;;6.47;4.03;;;15.10;99.90;;;;;;5093504;28;20028;-68
2021/08/29 08:38:18;;;;;;;6.28;3.70;;;15.10;99.90;;;;;;5093424;28;20051;-68
2021/08/29 08:40:44;;;;;;;6.13;3.67;;;15.10;99.90;;;;;;5092878;28;20107;-68
2021/08/29 08:43:11;;;;;;;5.75;3.58;;;15.20;99.90;;;;;;5094581;28;20051;-69
2021/08/29 08:45:37;;;;;;;4.97;3.60;;;15.10;99.90;;;;;;5094320;28;20466;-69
2021/08/29 08:48:04;;;;;;;8.95;3.50;;;15.10;99.90;;;;;;5094290;28;20039;-69
2021/08/29 08:50:34;;;;;;;5.07;2.92;;;15.20;99.90;;;;;;5094550;28;20459;-69
2021/08/29 08:53:01;;;;;;;4.55;2.88;;;15.20;99.90;;;;;;5094214;28;20032;-69
2021/08/29 08:55:27;;;;;;;3.08;2.60;;;15.30;99.90;;;;;;5093449;28;20381;-69
2021/08/29 08:57:53;;;;;;;3.15;2.50;;;15.30;99.90;;;;;;5093843;28;20031;-69
2021/08/29 09:00:19;;;;;;;5.00;2.70;;;15.30;99.90;;;;;;5094325;28;20054;-69
2021/08/29 09:02:46;;;;;;;3.15;2.30;;;15.40;99.90;;;;;;5093129;28;20453;-69
2021/08/29 09:05:12;;;;;;;3.17;2.35;;;15.30;99.90;;;;;;5094037;28;20030;-69
2021/08/29 09:07:38;;;;;;;3.35;2.15;;;15.40;99.90;;;;;;5092510;28;20024;-69
2021/08/29 09:10:05;;;;;;;5.13;2.45;;;15.40;99.90;;;;;;5093736;28;20020;-69
2021/08/29 09:12:30;;;;;;;2.92;2.58;;;15.50;99.90;;;;;;5092749;28;20030;-69
2021/08/29 09:14:57;;;;;;;2.75;2.30;;;15.50;99.90;;;;;;5092262;28;20119;-69
2021/08/29 09:17:33;;;;;;;3.45;2.90;;;15.50;99.90;;;;;;5094125;28;20023;-69
2021/08/29 09:20:27;;;;;;;3.88;2.17;;;15.60;99.90;;;;;;5093581;28;20020;-69
2021/08/29 09:22:54;;;;;;;;;;;15.60;99.90;;;;;;5093998;28;20020;-69
2021/08/29 09:25:23;;;;;;;2.33;2.13;;;15.70;99.90;;;;;;5093846;28;19983;-69
2021/08/29 09:27:52;;;;;;;4.47;2.28;;;15.70;99.90;;;;;;5094094;28;20063;-69
2021/08/29 09:30:19;;;;;;;2.25;2.05;;;15.80;99.90;;;;;;5093113;28;20389;-69
2021/08/29 09:32:47;;;;;;;2.90;2.28;;;16.00;99.90;;;;;;5098247;28;20020;-69
2021/08/29 09:35:12;;;;;;;2.40;2.20;;;16.00;99.90;;;;;;5098066;28;20024;-69
2021/08/29 09:37:38;;;;;;;2.42;2.22;;;16.10;99.90;;;;;;5096706;28;20038;-69
2021/08/29 09:40:23;;;;;;;3.33;2.35;;;16.10;99.90;;;;;;5096980;28;20043;-69
2021/08/29 09:42:50;;;;;;;4.90;2.90;;;16.40;99.90;;;;;;5098057;28;20465;-69
2021/08/29 09:45:29;;;;;;;4.28;2.50;;;16.30;99.90;;;;;;5098036;28;20024;-69
2021/08/29 09:48:14;;;;;;;2.45;2.25;;;16.30;99.90;;;;;;5097704;28;20504;-69
2021/08/29 09:50:45;;;;;;;2.60;2.40;;;16.30;99.90;;;;;;5097933;28;20351;-69
2021/08/29 09:53:13;;;;;;;4.97;4.38;;;16.40;99.90;;;;;;5097886;28;20111;-69
2021/08/29 09:55:42;;;;;;;5.93;3.90;;;16.40;99.90;;;;;;5097780;28;20561;-69
2021/08/29 09:58:30;;;;;;;3.83;3.47;;;16.50;99.90;;;;;;5097534;28;20032;-69
2021/08/29 10:01:13;;;;;;;4.03;3.60;;;16.60;99.90;;;;;;5097085;28;20039;-69
2021/08/29 10:03:49;;;;;;;5.35;3.15;;;16.70;99.90;;;;;;5097612;28;20020;-69
2021/08/29 10:06:26;;;;;;;4.47;3.25;;;16.50;99.90;;;;;;5097638;28;20021;-69
2021/08/29 10:08:53;;;;;;;3.55;3.25;;;16.30;99.90;;;;;;5097346;28;20012;-69
2021/08/29 10:11:21;;;;;;;4.40;3.28;;;16.30;99.90;;;;;;5097248;28;20017;-69
2021/08/29 10:13:48;;;;;;;5.18;3.30;;;16.30;99.90;;;;;;5096808;28;20040;-69
2021/08/29 10:16:15;;;;;;;5.55;3.22;;;16.30;99.90;;;;;;5097154;28;20028;-69
2021/08/29 10:18:43;;;;;;;4.00;3.13;;;16.30;99.90;;;;;;5097398;28;20586;-69
2021/08/29 10:21:12;;;;;;;3.72;3.42;;;16.40;99.90;;;;;;5097061;28;20028;-69
2021/08/29 10:23:39;;;;;;;3.40;2.47;;;16.50;99.90;;;;;;5097308;28;20381;-69
2021/08/29 10:26:06;;;;;;;2.78;2.58;;;16.50;99.90;;;;;;5097270;28;20103;-69
2021/08/29 10:28:38;;;;;;;4.75;2.22;;;16.60;99.90;;;;;;5096909;28;20027;-69
2021/08/29 10:31:08;;;;;;;3.03;2.58;;;16.60;99.90;;;;;;5095710;28;20039;-69
2021/08/29 10:33:35;;;;;;;4.18;2.35;;;16.50;99.90;;;;;;5097122;28;20445;-69
2021/08/29 10:36:01;;;;;;;2.35;2.15;;;16.40;99.90;;;;;;5095068;28;20544;-69
2021/08/29 10:38:27;;;;;;;2.65;2.00;;;16.30;99.90;;;;;;5096914;28;20032;-69
2021/08/29 10:40:53;;;;;;;2.95;2.35;;;16.20;99.90;;;;;;5096918;28;20366;-69
2021/08/29 10:43:19;;;;;;;2.65;2.45;;;16.30;99.90;;;;;;5094755;28;20024;-69
2021/08/29 10:45:45;;;;;;;2.95;2.50;;;16.30;99.90;;;;;;5096891;28;20457;-69
2021/08/29 10:48:14;;;;;;;3.63;2.85;;;16.30;99.90;;;;;;5096825;28;20035;-69
2021/08/29 10:50:44;;;;;;;3.03;2.78;;;16.30;99.90;;;;;;5096794;28;20411;-69
2021/08/29 10:53:34;;;;;;;5.05;3.08;;;16.50;99.90;;;;;;5095596;28;20048;-69
2021/08/29 10:59:21;;;;;;;3.40;3.10;;;16.60;99.90;;;;;;5112165;27;20384;-68
2021/08/29 11:01:49;;;;;;;6.05;3.33;;;17.20;99.90;;;;;;5111861;28;20024;-69
2021/08/29 11:04:23;;;;;;;3.83;3.17;;;17.30;99.90;;;;;;5111831;28;20054;-68
2021/08/29 11:06:51;;;;;;;3.35;2.92;;;17.30;99.90;;;;;;5111565;28;20027;-68
2021/08/29 11:09:37;;;;;;;3.60;3.03;;;17.40;99.90;;;;;;5111805;28;20136;-68
2021/08/29 11:12:26;;;;;;;4.68;3.72;;;17.20;99.90;;;;;;5111503;28;20073;-68
2021/08/29 11:14:53;;;;;;;5.22;3.70;;;17.10;99.90;;;;;;5111082;28;20022;-69
2021/08/29 11:17:24;;;;;;;6.10;4.70;;;16.80;99.90;;;;;;5111276;28;20431;-69
2021/08/29 11:19:52;;;;;;;5.00;4.50;;;16.70;99.90;;;;;;5111283;28;20016;-69
2021/08/29 11:22:26;;;;;;;5.68;4.40;;;16.80;99.90;;;;;;5111223;28;20026;-69
2021/08/29 11:27:54;;;;;;;6.80;5.07;;;16.60;99.90;;;;;;5071640;28;20441;-68
2021/08/29 11:30:40;;;;;;;5.45;4.95;;;16.50;99.90;;;;;;5070848;28;20056;-68
2021/08/29 11:33:09;;;;;;;8.27;5.38;;;16.40;99.90;;;;;;5069620;28;20023;-69
2021/08/29 11:35:45;;;;;;;5.78;5.28;;;16.40;99.90;;;;;;5071252;28;20546;-68
2021/08/29 11:38:31;;;;;;;5.65;5.07;;;16.50;99.90;;;;;;5071256;28;20131;-69
2021/08/29 11:41:13;;;;;;;5.45;4.95;;;16.50;99.90;;;;;;5071155;28;20039;-69
2021/08/29 11:43:42;;;;;;;6.35;5.38;;;16.50;99.90;;;;;;5070859;28;20086;-69
2021/08/29 11:46:19;;;;;;;5.05;4.53;;;16.60;99.90;;;;;;5070740;28;20359;-69
2021/08/29 11:49:05;;;;;;;6.32;5.30;;;16.70;99.90;;;;;;5070975;28;20035;-68
2021/08/29 11:51:35;;;;;;;5.80;5.22;;;17.00;99.90;;;;;;5070299;28;20082;-68
2021/08/29 11:54:03;;;;;;;5.85;5.25;;;17.20;99.90;;;;;;5070825;28;20021;-69
2021/08/29 11:56:31;;;;;;;6.10;5.40;;;17.20;99.90;;;;;;5070742;28;20098;-69
2021/08/29 11:59:01;;;;;;;5.50;5.00;;;17.00;99.90;;;;;;5070494;28;20025;-70
2021/08/29 12:01:28;;;;;;;8.73;5.60;;;16.90;99.90;;;;;;5070678;28;20025;-71
2021/08/29 12:03:55;;;;;;;6.90;6.15;;;16.90;99.90;;;;;;5070082;28;20473;-71
2021/08/29 12:06:31;;;;;;;7.43;6.50;;;16.80;99.90;;;;;;5070546;28;20031;-71
2021/08/29 12:09:08;;;;;;;7.07;6.38;;;16.70;99.90;;;;;;5070533;28;20013;-71
2021/08/29 12:11:37;;;;;;;9.35;6.63;;;16.60;99.90;;;;;;5069464;28;20017;-71
2021/08/29 12:14:13;;;;;;;8.48;6.55;;;16.50;99.90;;;;;;5070505;28;20017;-71
2021/08/29 12:16:43;;;;;;;9.50;7.18;;;16.50;99.90;;;;;;5069885;28;20470;-71
2021/08/29 12:19:12;;;;;;;9.90;6.85;;;16.50;99.90;;;;;;5070378;28;20497;-71
2021/08/29 12:21:43;;;;;;;7.22;6.43;;;16.40;99.90;;;;;;5070107;28;20028;-71
2021/08/29 12:24:11;;;;;;;7.30;6.50;;;16.50;99.90;;;;;;5070268;28;20028;-71
2021/08/29 12:26:37;;;;;;;7.35;5.80;;;16.60;99.90;;;;;;5068544;28;20045;-71
2021/08/29 12:29:05;;;;;;;7.18;5.93;;;16.70;99.90;;;;;;5069883;28;20027;-71
2021/08/29 12:31:36;;;;;;;8.57;6.20;;;16.80;99.90;;;;;;5070113;28;20075;-71
2021/08/29 12:34:02;;;;;;;7.40;5.90;;;16.80;99.90;;;;;;5068905;28;20021;-71
2021/08/29 12:36:28;;;;;;;7.88;6.15;;;16.80;99.90;;;;;;5070009;28;20025;-70
2021/08/29 12:38:54;;;;;;;8.30;6.40;;;16.90;99.90;;;;;;5058133;28;20139;-70
2021/08/29 12:41:19;;;;;;;8.18;6.10;;;17.10;99.90;;;;;;5055285;28;20079;-71
2021/08/29 12:43:45;;;;;;;9.77;6.65;;;17.30;99.90;;;;;;5055261;28;20053;-71